Time;durP1;ratioP1;P1;durP2;ratioP2;P2;SDS_P1;SDS_P2;PMS_P1;PMS_P2;Temp;Humidity;BMP_temperature;BMP_pressure;BME280_temperature;BME280_humidity;BME280_pressure;Samples;Min_cycle;Max_cycle;Signal;HPM_P1;HPM_P2
2022/02/21 00:00:27;;;;;;;2.40;1.00;;;9.50;99.90;;;;;;5003244;28;20469;-67
2022/02/21 00:02:54;;;;;;;3.07;1.53;;;9.50;99.90;;;;;;4995419;28;20439;-66
2022/02/21 00:05:20;;;;;;;5.10;0.93;;;9.60;99.90;;;;;;5001371;28;20471;-66
2022/02/21 00:07:46;;;;;;;2.83;1.50;;;9.50;99.90;;;;;;4995212;28;20445;-67
2022/02/21 00:10:13;;;;;;;3.27;1.20;;;9.50;99.90;;;;;;4995001;28;20948;-66
2022/02/21 00:12:39;;;;;;;1.23;1.03;;;9.60;99.90;;;;;;4999575;28;20434;-66
2022/02/21 00:15:06;;;;;;;2.10;2.00;;;9.60;99.90;;;;;;4998961;28;20552;-66
2022/02/21 00:17:32;;;;;;;4.70;1.53;;;9.60;99.90;;;;;;5002753;28;20441;-66
2022/02/21 00:19:58;;;;;;;1.23;0.90;;;9.60;99.90;;;;;;4996821;28;20816;-66
2022/02/21 00:22:26;;;;;;;2.00;0.90;;;9.60;99.90;;;;;;4994985;28;20450;-66
2022/02/21 00:24:53;;;;;;;3.60;1.53;;;9.70;99.90;;;;;;4994916;28;20234;-66
2022/02/21 00:27:19;;;;;;;2.40;1.10;;;9.70;99.90;;;;;;4994833;28;20442;-66
2022/02/21 00:29:45;;;;;;;0.80;0.80;;;9.70;99.90;;;;;;4994910;28;20801;-66
2022/02/21 00:32:11;;;;;;;3.60;1.33;;;9.70;99.90;;;;;;4994680;28;20443;-66
2022/02/21 00:34:36;;;;;;;4.77;1.40;;;9.70;99.90;;;;;;4994821;28;20214;-66
2022/02/21 00:37:02;;;;;;;1.83;1.23;;;9.70;99.90;;;;;;4994397;28;20198;-67
2022/02/21 00:39:28;;;;;;;4.23;1.60;;;9.60;99.90;;;;;;4996925;28;20821;-66
2022/02/21 00:41:53;;;;;;;6.33;1.10;;;9.60;99.90;;;;;;4998728;28;20182;-66
2022/02/21 00:44:19;;;;;;;2.00;1.17;;;9.60;99.90;;;;;;5000497;28;20581;-66
2022/02/21 00:46:44;;;;;;;1.83;1.03;;;9.60;99.90;;;;;;4999380;28;20188;-67
2022/02/21 00:49:10;;;;;;;8.70;2.13;;;9.60;99.90;;;;;;4994757;28;20186;-67
2022/02/21 00:51:35;;;;;;;1.83;1.67;;;9.50;99.90;;;;;;4996359;28;20184;-66
2022/02/21 00:54:01;;;;;;;3.27;1.60;;;9.30;99.90;;;;;;4995845;28;20206;-67
2022/02/21 00:56:26;;;;;;;2.50;1.30;;;9.10;99.90;;;;;;5001392;28;20527;-66
2022/02/21 00:58:52;;;;;;;3.73;0.93;;;9.10;99.90;;;;;;4995624;28;20179;-66
2022/02/21 01:01:17;;;;;;;1.93;1.40;;;9.00;99.90;;;;;;4996425;28;20187;-66
2022/02/21 01:03:43;;;;;;;2.00;1.03;;;9.00;99.90;;;;;;5000094;28;20215;-66
2022/02/21 01:06:08;;;;;;;2.10;1.03;;;8.90;99.90;;;;;;4993804;28;20168;-66
2022/02/21 01:08:34;;;;;;;4.10;1.20;;;8.90;99.90;;;;;;4998582;28;20175;-66
2022/02/21 01:11:00;;;;;;;6.60;1.60;;;8.90;99.90;;;;;;4997219;28;20180;-67
2022/02/21 01:13:25;;;;;;;2.90;1.50;;;8.90;99.90;;;;;;5000433;28;20286;-66
2022/02/21 01:15:53;;;;;;;4.83;1.30;;;8.90;99.90;;;;;;5005209;28;20449;-66
2022/02/21 01:18:19;;;;;;;2.50;1.20;;;8.80;99.90;;;;;;4994378;28;20258;-66
2022/02/21 01:20:45;;;;;;;1.70;1.10;;;8.80;99.90;;;;;;5000908;28;20446;-67
2022/02/21 01:23:11;;;;;;;2.07;1.13;;;8.80;99.90;;;;;;4996209;28;20454;-67
2022/02/21 01:25:36;;;;;;;1.60;1.33;;;8.70;99.90;;;;;;5005604;28;20462;-66
2022/02/21 01:28:02;;;;;;;2.93;1.30;;;8.80;99.90;;;;;;4995617;28;20179;-67
2022/02/21 01:30:28;;;;;;;3.63;1.20;;;8.80;99.90;;;;;;4998862;28;20180;-67
2022/02/21 01:32:53;;;;;;;5.53;1.27;;;8.80;99.90;;;;;;5000874;28;20228;-66
2022/02/21 01:35:19;;;;;;;5.00;1.73;;;8.80;99.90;;;;;;4998273;28;20211;-67
2022/02/21 01:37:44;;;;;;;1.67;0.93;;;8.80;99.90;;;;;;5000421;28;20182;-67
2022/02/21 01:40:10;;;;;;;3.20;1.03;;;8.80;99.90;;;;;;4997038;28;20180;-67
2022/02/21 01:42:37;;;;;;;2.50;1.60;;;8.80;99.90;;;;;;4995379;28;20645;-66
2022/02/21 01:45:04;;;;;;;1.77;0.93;;;8.90;99.90;;;;;;4994164;28;20237;-67
2022/02/21 01:47:30;;;;;;;1.60;1.20;;;8.90;99.90;;;;;;4999238;28;20446;-67
2022/02/21 01:49:55;;;;;;;2.27;1.10;;;9.00;99.90;;;;;;5004819;28;20450;-67
2022/02/21 01:52:21;;;;;;;1.50;1.10;;;9.00;99.90;;;;;;4994841;28;20865;-66
2022/02/21 01:54:47;;;;;;;1.37;1.10;;;9.10;99.90;;;;;;4994892;28;20204;-67
2022/02/21 01:57:13;;;;;;;3.90;1.10;;;9.10;99.90;;;;;;4998078;28;20757;-66
2022/02/21 01:59:39;;;;;;;2.30;1.20;;;9.10;99.90;;;;;;4994546;28;20270;-66
2022/02/21 02:02:06;;;;;;;2.63;1.30;;;9.20;99.90;;;;;;4994531;28;20438;-67
2022/02/21 02:04:33;;;;;;;3.60;1.10;;;9.20;99.90;;;;;;4994263;28;20823;-66
2022/02/21 02:07:01;;;;;;;2.70;1.23;;;9.20;99.90;;;;;;4993422;28;20873;-66
2022/02/21 02:09:26;;;;;;;1.93;0.90;;;9.20;99.90;;;;;;5003858;28;20978;-66
2022/02/21 02:11:52;;;;;;;1.33;0.77;;;9.20;99.90;;;;;;4994994;28;20521;-66
2022/02/21 02:14:38;;;;;;;1.30;1.20;;;9.20;99.90;;;;;;4992877;28;20694;-66
2022/02/21 02:17:14;;;;;;;2.40;0.87;;;9.20;99.90;;;;;;4992648;28;20175;-65
2022/02/21 02:19:42;;;;;;;1.90;0.97;;;9.20;99.90;;;;;;4992976;28;20439;-65
2022/02/21 02:22:18;;;;;;;1.57;0.90;;;9.20;99.90;;;;;;4992620;28;20445;-65
2022/02/21 02:24:46;;;;;;;2.47;0.90;;;9.20;99.90;;;;;;4991752;28;20521;-65
2022/02/21 02:27:12;;;;;;;2.70;1.27;;;9.20;99.90;;;;;;4992184;28;20435;-65
2022/02/21 02:29:39;;;;;;;3.53;1.10;;;9.20;99.90;;;;;;4992429;28;20796;-67
2022/02/21 02:32:06;;;;;;;5.63;1.27;;;9.20;99.90;;;;;;4992536;28;20442;-67
2022/02/21 02:34:32;;;;;;;1.40;0.83;;;9.20;99.90;;;;;;4997526;28;20462;-67
2022/02/21 02:36:58;;;;;;;1.60;0.77;;;9.20;99.90;;;;;;4995432;28;20500;-65
2022/02/21 02:39:24;;;;;;;2.50;1.07;;;9.10;99.90;;;;;;4991001;28;20557;-68
2022/02/21 02:41:51;;;;;;;2.27;0.83;;;9.00;99.90;;;;;;4991866;28;20175;-67
2022/02/21 02:44:16;;;;;;;1.90;1.03;;;8.80;99.90;;;;;;4992384;28;20557;-67
2022/02/21 02:46:42;;;;;;;2.60;1.20;;;8.60;99.90;;;;;;4992162;28;20525;-66
2022/02/21 02:49:08;;;;;;;3.33;1.30;;;8.50;99.90;;;;;;4991136;28;20193;-67
2022/02/21 02:51:34;;;;;;;0.97;0.90;;;8.50;99.90;;;;;;4992620;28;20645;-66
2022/02/21 02:53:59;;;;;;;1.53;0.83;;;8.40;99.90;;;;;;4991967;28;20293;-66
2022/02/21 02:56:25;;;;;;;1.50;1.00;;;8.30;99.90;;;;;;4993146;28;20806;-66
2022/02/21 02:58:50;;;;;;;1.53;1.20;;;8.30;99.90;;;;;;5002702;28;20175;-66
2022/02/21 03:01:16;;;;;;;3.80;1.10;;;8.30;99.90;;;;;;4996076;28;20191;-66
2022/02/21 03:03:41;;;;;;;1.80;1.03;;;8.30;99.90;;;;;;4993895;28;20207;-66
2022/02/21 03:06:07;;;;;;;3.33;1.00;;;8.30;99.90;;;;;;4995440;28;20172;-66
2022/02/21 03:08:33;;;;;;;1.70;0.60;;;8.30;99.90;;;;;;4996626;28;20195;-67
2022/02/21 03:10:58;;;;;;;3.03;0.90;;;8.40;99.90;;;;;;4996499;28;20187;-67
2022/02/21 03:13:24;;;;;;;3.10;0.97;;;8.40;99.90;;;;;;4995484;28;20197;-67
2022/02/21 03:15:49;;;;;;;1.60;0.80;;;8.50;99.90;;;;;;4999759;28;20183;-67
2022/02/21 03:18:14;;;;;;;1.37;0.87;;;8.60;99.90;;;;;;4999279;28;20577;-66
2022/02/21 03:20:40;;;;;;;2.10;1.00;;;8.60;99.90;;;;;;5008317;28;20195;-67
2022/02/21 03:23:05;;;;;;;0.70;0.70;;;8.70;99.90;;;;;;4999808;28;20179;-67
2022/02/21 03:25:31;;;;;;;2.47;0.80;;;8.70;99.90;;;;;;4998939;28;20208;-66
2022/02/21 03:27:57;;;;;;;4.70;0.90;;;8.70;99.90;;;;;;5003349;28;20175;-67
2022/02/21 03:30:22;;;;;;;2.20;0.80;;;8.70;99.90;;;;;;4998883;28;20267;-67
2022/02/21 03:32:48;;;;;;;3.33;0.80;;;8.70;99.90;;;;;;4996896;28;20167;-67
2022/02/21 03:35:14;;;;;;;4.33;0.80;;;8.70;99.90;;;;;;5000519;28;20203;-66
2022/02/21 03:37:39;;;;;;;1.57;0.80;;;8.50;99.90;;;;;;4999778;28;20226;-66
2022/02/21 03:40:06;;;;;;;0.97;0.83;;;8.40;99.90;;;;;;4996934;28;20183;-67
2022/02/21 03:42:32;;;;;;;0.83;0.83;;;8.30;99.90;;;;;;4997199;28;20191;-67
2022/02/21 03:45:00;;;;;;;2.63;1.00;;;8.20;99.90;;;;;;4999481;28;20975;-67
2022/02/21 03:47:26;;;;;;;2.50;0.80;;;8.10;99.90;;;;;;5003182;28;20191;-67
2022/02/21 03:49:51;;;;;;;5.40;0.80;;;8.00;99.90;;;;;;5006290;28;20528;-68
2022/02/21 03:52:17;;;;;;;0.70;0.57;;;7.10;99.90;;;;;;4999424;28;20179;-68
2022/02/21 03:54:43;;;;;;;4.03;0.70;;;6.40;99.90;;;;;;5000824;28;20204;-67
2022/02/21 03:57:08;;;;;;;0.87;0.40;;;5.80;99.90;;;;;;4998725;28;20175;-67
2022/02/21 03:59:34;;;;;;;2.60;0.60;;;5.40;99.90;;;;;;5010446;28;20179;-67
2022/02/21 04:02:00;;;;;;;0.70;0.60;;;5.30;99.90;;;;;;4998827;28;20175;-68
2022/02/21 04:04:25;;;;;;;1.10;0.70;;;5.00;99.90;;;;;;4995132;28;20205;-68
2022/02/21 04:06:51;;;;;;;0.70;0.53;;;4.70;99.90;;;;;;5018539;28;20653;-67
2022/02/21 04:09:16;;;;;;;1.47;0.70;;;4.40;99.90;;;;;;4994051;28;20183;-68
2022/02/21 04:11:42;;;;;;;1.07;0.60;;;4.30;99.90;;;;;;5002897;28;20545;-67
2022/02/21 04:14:07;;;;;;;2.53;0.60;;;4.20;99.90;;;;;;4997356;28;20677;-67
2022/02/21 04:16:34;;;;;;;3.80;0.70;;;4.00;99.90;;;;;;4996578;28;20242;-67
2022/02/21 04:19:03;;;;;;;1.10;0.80;;;3.90;99.90;;;;;;4997396;28;20665;-68
2022/02/21 04:21:32;;;;;;;1.10;0.70;;;3.80;99.90;;;;;;4998141;28;20429;-67
2022/02/21 04:23:58;;;;;;;2.10;0.60;;;3.70;99.90;;;;;;4995690;28;20453;-68
2022/02/21 04:26:24;;;;;;;3.27;0.90;;;3.70;99.90;;;;;;5004049;28;20430;-67
2022/02/21 04:28:50;;;;;;;2.33;0.87;;;3.60;99.90;;;;;;5002222;28;20435;-68
2022/02/21 04:31:17;;;;;;;0.90;0.77;;;3.60;99.90;;;;;;5002822;28;20267;-68
2022/02/21 04:33:46;;;;;;;0.90;0.80;;;3.50;99.90;;;;;;5007369;28;20446;-67
2022/02/21 04:36:13;;;;;;;0.93;0.80;;;3.50;99.90;;;;;;4995641;28;20431;-67
2022/02/21 04:38:38;;;;;;;5.70;1.03;;;3.40;99.90;;;;;;4995455;28;20469;-67
2022/02/21 04:41:04;;;;;;;4.70;1.57;;;3.50;99.90;;;;;;4997386;28;20458;-67
2022/02/21 04:43:29;;;;;;;3.03;1.40;;;3.50;99.90;;;;;;4995023;28;20195;-67
2022/02/21 04:45:55;;;;;;;2.60;1.53;;;3.40;99.90;;;;;;4996190;28;20200;-67
2022/02/21 04:48:25;;;;;;;4.33;1.70;;;3.40;99.90;;;;;;4994447;28;20270;-67
2022/02/21 04:50:51;;;;;;;5.40;1.63;;;3.40;99.90;;;;;;5010923;28;20190;-67
2022/02/21 04:53:17;;;;;;;7.70;2.23;;;3.50;99.90;;;;;;5014472;28;20413;-67
2022/02/21 04:55:42;;;;;;;7.37;1.87;;;3.50;99.90;;;;;;4998191;28;20446;-67
2022/02/21 04:58:08;;;;;;;1.47;0.90;;;3.50;99.90;;;;;;4998903;28;20242;-67
2022/02/21 05:00:34;;;;;;;1.67;1.20;;;3.50;99.90;;;;;;5009482;28;20183;-67
2022/02/21 05:03:00;;;;;;;7.33;1.30;;;3.50;99.90;;;;;;4995820;28;20585;-67
2022/02/21 05:05:25;;;;;;;5.80;1.40;;;3.50;99.90;;;;;;4996509;28;20521;-67
2022/02/21 05:07:51;;;;;;;2.40;1.80;;;3.60;99.90;;;;;;5005390;28;20211;-67
2022/02/21 05:10:17;;;;;;;4.10;2.10;;;3.60;99.90;;;;;;4995337;28;20721;-67
2022/02/21 05:12:42;;;;;;;3.60;1.10;;;3.60;99.90;;;;;;4994336;28;20188;-67
2022/02/21 05:15:09;;;;;;;3.77;1.53;;;3.70;99.90;;;;;;5001475;28;20469;-67
2022/02/21 05:17:36;;;;;;;3.17;1.20;;;3.70;99.90;;;;;;4996027;28;20180;-67
2022/02/21 05:20:04;;;;;;;4.93;2.30;;;3.80;99.90;;;;;;4993936;28;20501;-67
2022/02/21 05:22:29;;;;;;;6.57;2.07;;;3.80;99.90;;;;;;4994132;28;20444;-67
2022/02/21 05:24:55;;;;;;;3.40;1.30;;;3.90;99.90;;;;;;4994478;28;20836;-67
2022/02/21 05:27:20;;;;;;;7.57;1.80;;;3.90;99.90;;;;;;5003185;28;20260;-67
2022/02/21 05:29:46;;;;;;;12.87;2.67;;;4.00;99.90;;;;;;4996150;28;20193;-67
2022/02/21 05:32:11;;;;;;;4.20;1.50;;;4.00;99.90;;;;;;5006163;28;20176;-67
2022/02/21 05:34:38;;;;;;;2.63;1.70;;;4.00;99.90;;;;;;4998177;28;20199;-67
2022/02/21 05:37:07;;;;;;;6.10;2.53;;;4.10;99.90;;;;;;4999893;28;20182;-67
2022/02/21 05:39:33;;;;;;;2.73;1.53;;;4.10;99.90;;;;;;4995684;28;20439;-67
2022/02/21 05:41:59;;;;;;;6.27;2.47;;;4.10;99.90;;;;;;5001479;28;20575;-67
2022/02/21 05:44:25;;;;;;;5.63;2.33;;;4.10;99.90;;;;;;5003275;28;20265;-67
2022/02/21 05:46:51;;;;;;;4.00;2.23;;;4.20;99.90;;;;;;4993747;28;20524;-67
2022/02/21 05:49:16;;;;;;;6.57;2.17;;;4.20;99.90;;;;;;5002176;28;20183;-67
2022/02/21 05:51:42;;;;;;;11.53;3.17;;;4.20;99.90;;;;;;4995490;28;20654;-67
2022/02/21 05:54:08;;;;;;;7.73;2.63;;;4.30;99.90;;;;;;4993334;28;20797;-67
2022/02/21 05:56:33;;;;;;;6.90;2.10;;;4.30;99.90;;;;;;4997025;28;20684;-68
2022/02/21 05:58:59;;;;;;;10.30;1.70;;;4.40;99.90;;;;;;5003913;28;20175;-67
2022/02/21 06:01:24;;;;;;;5.60;2.23;;;4.40;99.90;;;;;;4995444;28;20241;-67
2022/02/21 06:03:50;;;;;;;4.83;2.07;;;4.40;99.90;;;;;;4993881;28;20211;-67
2022/02/21 06:06:15;;;;;;;9.63;2.23;;;4.40;99.90;;;;;;4993167;28;20712;-67
2022/02/21 06:08:41;;;;;;;10.37;2.07;;;4.50;99.90;;;;;;4996746;28;20261;-67
2022/02/21 06:11:06;;;;;;;5.80;2.67;;;4.50;99.90;;;;;;4992980;28;20257;-67
2022/02/21 06:13:32;;;;;;;7.47;2.70;;;4.50;99.90;;;;;;4993136;28;20201;-67
2022/02/21 06:15:58;;;;;;;7.03;2.20;;;4.50;99.90;;;;;;4992940;28;20711;-67
2022/02/21 06:18:24;;;;;;;9.47;2.07;;;4.50;99.90;;;;;;4993601;28;20442;-67
2022/02/21 06:20:49;;;;;;;6.13;2.80;;;4.50;99.90;;;;;;4993076;28;20431;-67
2022/02/21 06:23:16;;;;;;;8.27;1.90;;;4.60;99.90;;;;;;5002982;28;20182;-67
2022/02/21 06:25:42;;;;;;;8.70;1.87;;;4.60;99.90;;;;;;4998942;28;20200;-67
2022/02/21 06:28:08;;;;;;;6.57;1.90;;;4.50;99.90;;;;;;4993027;28;20427;-67
2022/02/21 06:30:34;;;;;;;9.67;2.30;;;4.60;99.90;;;;;;5001779;28;20804;-67
2022/02/21 06:32:59;;;;;;;7.50;2.13;;;4.50;99.90;;;;;;4993048;28;20435;-67
2022/02/21 06:35:25;;;;;;;6.83;1.87;;;4.60;99.90;;;;;;4992731;28;20204;-67
2022/02/21 06:37:52;;;;;;;7.80;1.97;;;4.50;99.90;;;;;;4992715;28;20563;-67
2022/02/21 06:40:18;;;;;;;8.20;2.20;;;4.60;99.90;;;;;;4992778;28;20176;-67
2022/02/21 06:42:43;;;;;;;4.27;2.13;;;4.60;99.90;;;;;;4992729;28;20438;-67
2022/02/21 06:45:10;;;;;;;7.70;1.87;;;4.60;99.90;;;;;;4992442;28;20203;-67
2022/02/21 06:47:35;;;;;;;3.57;1.80;;;4.60;99.90;;;;;;4992777;28;20289;-67
2022/02/21 06:50:06;;;;;;;6.83;2.70;;;4.60;99.90;;;;;;5005889;28;20513;-67
2022/02/21 06:52:31;;;;;;;8.20;1.80;;;4.70;99.90;;;;;;5001288;28;20172;-67
2022/02/21 06:54:58;;;;;;;6.17;2.90;;;4.80;99.90;;;;;;5009387;28;20548;-67
2022/02/21 06:57:23;;;;;;;6.33;1.50;;;4.80;99.90;;;;;;5000018;28;20194;-67
2022/02/21 06:59:49;;;;;;;4.73;1.70;;;4.80;99.90;;;;;;4992705;28;20419;-67
2022/02/21 07:02:15;;;;;;;13.63;2.53;;;4.80;99.90;;;;;;4996469;28;20189;-67
2022/02/21 07:04:40;;;;;;;7.80;2.40;;;4.70;99.90;;;;;;4980736;28;20247;-67
2022/02/21 07:07:06;;;;;;;7.83;2.23;;;4.70;99.90;;;;;;4972745;28;20233;-67
2022/02/21 07:09:31;;;;;;;8.20;2.50;;;4.60;99.90;;;;;;4998740;28;20174;-67
2022/02/21 07:11:57;;;;;;;6.60;2.30;;;4.60;99.90;;;;;;5005941;28;20554;-68
2022/02/21 07:14:23;;;;;;;6.70;2.40;;;4.50;99.90;;;;;;4996186;28;20207;-67
2022/02/21 07:16:49;;;;;;;6.57;2.33;;;4.50;99.90;;;;;;4998608;28;20171;-68
2022/02/21 07:19:15;;;;;;;4.10;2.33;;;4.40;99.90;;;;;;5015850;28;20519;-68
2022/02/21 07:21:43;;;;;;;4.63;2.37;;;4.40;99.90;;;;;;4998560;28;20454;-68
2022/02/21 07:24:10;;;;;;;11.67;2.40;;;4.40;99.90;;;;;;4995286;28;20404;-67
2022/02/21 07:26:36;;;;;;;4.00;2.20;;;4.60;99.90;;;;;;4998434;28;20971;-68
2022/02/21 07:29:01;;;;;;;7.60;2.20;;;4.90;99.90;;;;;;4997948;28;20431;-68
2022/02/21 07:31:27;;;;;;;6.10;2.10;;;5.10;99.90;;;;;;4998415;28;20500;-68
2022/02/21 07:33:52;;;;;;;7.67;2.30;;;5.30;99.90;;;;;;4996319;28;20278;-66
2022/02/21 07:36:18;;;;;;;4.27;2.07;;;5.50;99.90;;;;;;4998478;28;20277;-66
2022/02/21 07:38:44;;;;;;;6.10;2.03;;;5.70;99.90;;;;;;4999021;28;20506;-66
2022/02/21 07:41:09;;;;;;;6.07;2.00;;;5.90;99.90;;;;;;5001900;28;20207;-66
2022/02/21 07:43:35;;;;;;;3.30;1.90;;;6.00;99.90;;;;;;4996972;28;20481;-66
2022/02/21 07:46:01;;;;;;;8.10;2.33;;;6.10;99.90;;;;;;4995953;28;20235;-66
2022/02/21 07:48:26;;;;;;;11.90;2.20;;;6.20;99.90;;;;;;5004157;28;20188;-66
2022/02/21 07:50:55;;;;;;;10.20;3.70;;;6.40;99.90;;;;;;4998895;28;20265;-66
2022/02/21 07:53:24;;;;;;;6.60;2.03;;;6.50;99.90;;;;;;5001517;28;20183;-66
2022/02/21 07:55:51;;;;;;;9.07;2.63;;;6.80;99.90;;;;;;4996343;28;20521;-65
2022/02/21 07:58:16;;;;;;;5.70;2.20;;;6.80;99.90;;;;;;4999265;28;20438;-66
2022/02/21 08:00:43;;;;;;;12.67;2.37;;;6.80;99.90;;;;;;4998511;28;20443;-66
2022/02/21 08:03:09;;;;;;;6.70;2.30;;;7.10;99.90;;;;;;4997903;28;20438;-66
2022/02/21 08:05:35;;;;;;;6.23;2.73;;;7.30;99.90;;;;;;4995549;28;20205;-66
2022/02/21 08:08:02;;;;;;;6.77;2.30;;;7.20;99.90;;;;;;4998918;28;20258;-66
2022/02/21 08:10:28;;;;;;;6.57;3.10;;;7.30;99.90;;;;;;4998306;28;20434;-66
2022/02/21 08:12:53;;;;;;;15.17;2.57;;;7.40;99.90;;;;;;4997857;28;20446;-66
2022/02/21 08:15:19;;;;;;;11.77;2.47;;;7.40;99.90;;;;;;4994884;28;20199;-66
2022/02/21 08:17:46;;;;;;;8.53;2.43;;;7.50;99.90;;;;;;4998052;28;20207;-66
2022/02/21 08:20:14;;;;;;;7.70;2.90;;;7.20;99.90;;;;;;4998446;28;20191;-66
2022/02/21 08:22:39;;;;;;;12.27;2.47;;;7.30;99.90;;;;;;5002240;28;20446;-66
2022/02/21 08:25:06;;;;;;;6.30;2.33;;;7.60;99.90;;;;;;4992301;28;20866;-66
2022/02/21 08:27:33;;;;;;;10.57;2.87;;;8.10;99.90;;;;;;4994994;28;20176;-66
2022/02/21 08:29:59;;;;;;;11.13;3.00;;;8.00;99.90;;;;;;4997404;28;20460;-66
2022/02/21 08:32:24;;;;;;;4.47;1.73;;;8.20;99.90;;;;;;4996670;28;20434;-65
2022/02/21 08:34:50;;;;;;;6.33;2.57;;;8.80;99.90;;;;;;4994677;28;20709;-66
2022/02/21 08:37:15;;;;;;;9.87;2.23;;;8.80;99.90;;;;;;4997823;28;20199;-66
2022/02/21 08:39:41;;;;;;;8.53;1.80;;;8.40;99.90;;;;;;4998034;28;20543;-64
2022/02/21 08:42:06;;;;;;;5.87;2.03;;;8.80;99.90;;;;;;4996882;28;20571;-64
2022/02/21 08:44:32;;;;;;;7.20;2.57;;;9.10;99.90;;;;;;4996707;28;20203;-64
2022/02/21 08:46:58;;;;;;;8.60;2.27;;;9.20;99.90;;;;;;4994134;28;20223;-65
2022/02/21 08:49:24;;;;;;;5.53;2.70;;;9.90;99.90;;;;;;5009794;28;20194;-65
2022/02/21 08:51:49;;;;;;;9.90;3.00;;;10.10;99.90;;;;;;5008407;28;20521;-65
2022/02/21 08:54:19;;;;;;;10.77;2.60;;;9.60;99.90;;;;;;4996999;28;20211;-65
2022/02/21 08:56:45;;;;;;;15.33;2.70;;;9.10;99.90;;;;;;4994352;28;20191;-65
2022/02/21 08:59:11;;;;;;;12.83;2.83;;;8.40;99.90;;;;;;4998446;28;20819;-65
2022/02/21 09:01:39;;;;;;;8.17;2.37;;;8.20;99.90;;;;;;4996537;28;20443;-65
2022/02/21 09:04:05;;;;;;;9.77;4.13;;;8.20;99.90;;;;;;4993468;28;20718;-65
2022/02/21 09:06:31;;;;;;;7.63;2.50;;;9.10;99.90;;;;;;4994745;28;20430;-65
2022/02/21 09:08:56;;;;;;;7.70;2.63;;;10.00;99.90;;;;;;4994949;28;21024;-65
2022/02/21 09:11:22;;;;;;;5.43;2.53;;;10.60;99.90;;;;;;4997399;28;20229;-65
2022/02/21 09:13:47;;;;;;;4.27;2.40;;;10.80;99.90;;;;;;4996932;28;20231;-65
2022/02/21 09:16:13;;;;;;;7.87;2.20;;;10.80;99.90;;;;;;4995496;28;20195;-65
2022/02/21 09:18:39;;;;;;;9.63;3.00;;;10.80;99.90;;;;;;4995172;28;20191;-65
2022/02/21 09:21:04;;;;;;;7.27;2.80;;;10.60;99.90;;;;;;4993687;28;20641;-65
2022/02/21 09:23:30;;;;;;;4.23;2.23;;;10.30;99.90;;;;;;4993623;28;20297;-65
2022/02/21 09:25:55;;;;;;;4.90;2.00;;;10.00;99.90;;;;;;4992387;28;20549;-65
2022/02/21 09:28:21;;;;;;;7.57;2.20;;;10.20;99.90;;;;;;4993436;28;20279;-64
2022/02/21 09:30:46;;;;;;;7.37;2.90;;;10.20;99.90;;;;;;4994837;28;20232;-67
2022/02/21 09:33:12;;;;;;;4.07;1.80;;;10.80;99.90;;;;;;4995790;28;20190;-64
2022/02/21 09:35:37;;;;;;;6.70;2.40;;;11.20;99.90;;;;;;4996115;28;20183;-64
2022/02/21 09:38:03;;;;;;;6.97;1.83;;;12.70;99.50;;;;;;4997180;28;20218;-64
2022/02/21 09:40:29;;;;;;;7.13;2.37;;;12.10;98.10;;;;;;4993303;28;20175;-67
2022/02/21 09:42:59;;;;;;;7.80;2.30;;;11.60;99.50;;;;;;4992936;28;20190;-64
2022/02/21 09:45:25;;;;;;;5.67;3.17;;;11.50;99.90;;;;;;4993367;28;20556;-64
2022/02/21 09:47:52;;;;;;;7.20;2.40;;;12.50;98.80;;;;;;4996652;28;20484;-65
2022/02/21 09:50:17;;;;;;;4.67;1.93;;;12.80;97.10;;;;;;4994191;28;20443;-64
2022/02/21 09:52:43;;;;;;;8.63;2.43;;;12.70;96.70;;;;;;4993517;28;20454;-67
2022/02/21 09:55:09;;;;;;;8.17;2.80;;;12.50;96.60;;;;;;4989394;28;20580;-64
2022/02/21 09:57:34;;;;;;;7.83;2.83;;;12.50;95.60;;;;;;5002235;28;20547;-64
2022/02/21 10:00:02;;;;;;;5.43;2.20;;;12.50;95.90;;;;;;4993280;28;20186;-67
2022/02/21 10:02:30;;;;;;;9.53;1.80;;;12.80;94.10;;;;;;4995335;28;20174;-64
2022/02/21 10:05:09;;;;;;;7.30;2.30;;;13.30;93.80;;;;;;4982225;28;20894;-64
2022/02/21 10:07:40;;;;;;;4.40;2.13;;;13.50;92.50;;;;;;4990706;28;20442;-64
2022/02/21 10:10:10;;;;;;;6.43;2.10;;;13.60;91.70;;;;;;4989939;28;20439;-64
2022/02/21 10:12:50;;;;;;;5.90;2.43;;;13.60;91.90;;;;;;4994397;28;21023;-65
2022/02/21 10:15:20;;;;;;;3.43;2.07;;;13.60;91.20;;;;;;4985849;28;20463;-65
2022/02/21 10:17:47;;;;;;;8.00;3.17;;;13.80;90.90;;;;;;4996541;28;20443;-64
2022/02/21 10:20:14;;;;;;;5.13;2.17;;;13.20;90.20;;;;;;4992082;28;20890;-64
2022/02/21 10:22:40;;;;;;;9.77;3.00;;;13.40;90.90;;;;;;4989527;28;20533;-64
2022/02/21 10:25:19;;;;;;;3.83;2.00;;;13.50;89.40;;;;;;4988663;28;20462;-64
2022/02/21 10:27:45;;;;;;;3.17;1.80;;;13.50;89.10;;;;;;4990983;28;20478;-64
2022/02/21 10:30:16;;;;;;;4.33;2.17;;;13.80;87.00;;;;;;4989111;28;20430;-64
2022/02/21 10:32:43;;;;;;;3.73;2.17;;;14.20;86.00;;;;;;4992012;28;20864;-65
2022/02/21 10:35:16;;;;;;;3.00;2.20;;;15.30;82.90;;;;;;4986848;28;20466;-65
2022/02/21 10:38:03;;;;;;;5.50;2.20;;;15.90;79.10;;;;;;4988914;28;20438;-66
2022/02/21 10:40:35;;;;;;;5.93;2.70;;;15.90;74.00;;;;;;4996649;28;20447;-65
2022/02/21 10:43:09;;;;;;;4.60;2.70;;;15.20;74.30;;;;;;4992430;28;20439;-65
2022/02/21 10:45:37;;;;;;;4.00;1.90;;;15.00;75.70;;;;;;4987474;28;21008;-65
2022/02/21 10:48:07;;;;;;;8.07;2.07;;;15.10;73.90;;;;;;4992561;28;20988;-65
2022/02/21 10:50:38;;;;;;;4.87;2.07;;;15.50;72.70;;;;;;4988582;28;21003;-65
2022/02/21 10:53:11;;;;;;;3.63;2.10;;;16.30;69.20;;;;;;4990153;28;20434;-65
2022/02/21 10:55:38;;;;;;;5.70;2.80;;;15.70;68.10;;;;;;4985768;28;21167;-65
2022/02/21 10:58:24;;;;;;;5.40;2.43;;;15.30;67.30;;;;;;4994762;28;20441;-66
2022/02/21 11:00:51;;;;;;;5.20;2.13;;;15.90;67.60;;;;;;4985658;28;20465;-65
2022/02/21 11:03:19;;;;;;;5.87;2.60;;;16.50;65.40;;;;;;4987811;28;20466;-65
2022/02/21 11:05:46;;;;;;;6.10;2.00;;;16.10;64.70;;;;;;4985231;28;20473;-65
2022/02/21 11:08:12;;;;;;;5.73;1.83;;;16.40;63.20;;;;;;4988228;28;20484;-65
2022/02/21 11:10:39;;;;;;;4.13;1.97;;;17.30;62.90;;;;;;4988799;28;20443;-64
2022/02/21 11:13:06;;;;;;;6.20;2.47;;;16.40;60.80;;;;;;4988945;28;20446;-67
2022/02/21 11:15:31;;;;;;;8.03;2.43;;;15.60;62.20;;;;;;4985568;28;20439;-63
2022/02/21 11:17:59;;;;;;;4.20;1.87;;;14.80;63.70;;;;;;4989128;28;20488;-66
2022/02/21 11:20:25;;;;;;;4.20;1.70;;;13.00;68.90;;;;;;4998355;28;20733;-64
2022/02/21 11:22:51;;;;;;;8.20;1.70;;;11.80;73.50;;;;;;4989331;28;20501;-73
2022/02/21 11:25:36;;;;;;;5.97;1.53;;;11.00;79.80;;;;;;4985339;28;20477;-68
2022/02/21 11:28:26;;;;;;;4.60;1.63;;;10.80;81.10;;;;;;4989490;28;20253;-68
2022/02/21 11:30:56;;;;;;;6.40;2.30;;;10.30;83.80;;;;;;4988531;28;20438;-68
2022/02/21 11:33:22;;;;;;;5.20;1.93;;;9.80;89.10;;;;;;4987473;28;20545;-65
2022/02/21 11:36:00;;;;;;;7.97;2.03;;;9.40;91.80;;;;;;4984713;28;20529;-66
2022/02/21 11:38:28;;;;;;;5.50;1.83;;;9.30;93.60;;;;;;4990523;28;20274;-69
2022/02/21 11:41:03;;;;;;;7.20;1.80;;;9.20;93.90;;;;;;4988178;28;20947;-67
2022/02/21 11:43:30;;;;;;;1.90;1.40;;;9.20;96.70;;;;;;4988194;28;20454;-66
2022/02/21 11:45:57;;;;;;;4.13;1.30;;;10.00;96.70;;;;;;4989413;28;20469;-66
2022/02/21 11:48:22;;;;;;;4.73;1.93;;;11.30;94.50;;;;;;4988316;28;20451;-67
2022/02/21 11:50:56;;;;;;;4.53;2.20;;;11.50;93.00;;;;;;4989761;28;20498;-67
2022/02/21 11:53:25;;;;;;;3.90;1.90;;;11.10;93.00;;;;;;4992164;28;20298;-64
2022/02/21 11:55:52;;;;;;;6.10;2.37;;;11.80;92.10;;;;;;4985457;28;20482;-67
2022/02/21 11:58:18;;;;;;;9.53;2.20;;;13.00;90.90;;;;;;4998424;28;20435;-67
2022/02/21 12:00:47;;;;;;;4.50;2.00;;;13.30;88.40;;;;;;4991841;28;20449;-67
2022/02/21 12:03:25;;;;;;;5.10;2.00;;;12.70;87.90;;;;;;5008231;28;20513;-67
2022/02/21 12:05:56;;;;;;;4.67;1.77;;;12.20;89.70;;;;;;4990310;28;20553;-65
2022/02/21 12:08:31;;;;;;;4.80;1.90;;;11.60;89.30;;;;;;4999973;28;20485;-65
2022/02/21 12:13:29;;;;;;;4.57;1.77;;;11.40;87.60;;;;;;4995176;28;20542;-66
2022/02/21 12:16:09;;;;;;;2.70;1.40;;;11.40;86.30;;;;;;4991256;28;20434;-66
2022/02/21 12:18:46;;;;;;;1.53;1.20;;;10.60;86.00;;;;;;4995408;28;20475;-66
2022/02/21 12:21:21;;;;;;;2.40;1.10;;;9.90;87.40;;;;;;5002877;28;20969;-66
2022/02/21 12:23:52;;;;;;;8.70;1.33;;;9.70;85.00;;;;;;4993895;28;20544;-65
2022/02/21 12:26:25;;;;;;;3.03;1.90;;;9.40;85.80;;;;;;4997708;28;20548;-65
2022/02/21 12:29:20;;;;;;;3.03;1.93;;;9.30;86.60;;;;;;4994534;28;20431;-65
2022/02/21 12:31:59;;;;;;;5.53;2.70;;;9.20;87.00;;;;;;4989294;28;20513;-66
2022/02/21 12:34:27;;;;;;;4.00;1.17;;;9.20;88.90;;;;;;4997840;28;20446;-64
2022/02/21 12:36:58;;;;;;;5.67;1.90;;;9.10;89.30;;;;;;4997000;28;20468;-65
2022/02/21 12:39:26;;;;;;;5.40;1.67;;;9.00;89.70;;;;;;4994721;28;20492;-67
2022/02/21 12:41:53;;;;;;;6.10;2.00;;;8.70;90.10;;;;;;4994986;28;20434;-67
2022/02/21 12:44:21;;;;;;;6.57;1.67;;;8.60;90.00;;;;;;4991197;28;20607;-66
2022/02/21 12:46:50;;;;;;;4.10;1.80;;;8.60;90.40;;;;;;4993679;28;20449;-65
2022/02/21 12:49:27;;;;;;;3.70;1.20;;;8.50;91.00;;;;;;4996344;28;20463;-67
2022/02/21 12:51:56;;;;;;;5.23;1.90;;;8.40;91.40;;;;;;4996318;28;20430;-68
2022/02/21 12:54:23;;;;;;;2.90;1.67;;;8.20;91.80;;;;;;4991528;28;20494;-67
2022/02/21 12:56:51;;;;;;;4.17;1.90;;;8.20;92.50;;;;;;5004053;28;20438;-66